sensor_id;sensor_type;location;lat;lon;timestamp;pressure;altitude;pressure_sealevel;temperature;humidity
76726;BME280;65651;53.154;17.916;2022-12-10T00:02:26;100347.11;;;-0.42;88.07
76726;BME280;65651;53.154;17.916;2022-12-10T00:04:53;100344.67;;;-0.43;88.04
76726;BME280;65651;53.154;17.916;2022-12-10T00:07:19;100344.72;;;-0.44;88.20
76726;BME280;65651;53.154;17.916;2022-12-10T00:09:46;100342.27;;;-0.45;88.12
76726;BME280;65651;53.154;17.916;2022-12-10T00:12:13;100340.92;;;-0.45;88.12
76726;BME280;65651;53.154;17.916;2022-12-10T00:14:39;100344.08;;;-0.45;88.04
76726;BME280;65651;53.154;17.916;2022-12-10T00:17:06;100342.81;;;-0.45;88.12
76726;BME280;65651;53.154;17.916;2022-12-10T00:19:32;100343.96;;;-0.43;88.03
76726;BME280;65651;53.154;17.916;2022-12-10T00:21:59;100343.05;;;-0.42;87.97
76726;BME280;65651;53.154;17.916;2022-12-10T00:24:25;100345.62;;;-0.44;88.10
76726;BME280;65651;53.154;17.916;2022-12-10T00:26:52;100345.62;;;-0.47;87.86
76726;BME280;65651;53.154;17.916;2022-12-10T00:29:18;100344.93;;;-0.51;87.88
76726;BME280;65651;53.154;17.916;2022-12-10T00:31:45;100349.67;;;-0.54;87.77
76726;BME280;65651;53.154;17.916;2022-12-10T00:34:12;100352.07;;;-0.56;87.83
76726;BME280;65651;53.154;17.916;2022-12-10T00:36:44;100353.38;;;-0.58;87.80
76726;BME280;65651;53.154;17.916;2022-12-10T00:39:14;100352.48;;;-0.61;87.66
76726;BME280;65651;53.154;17.916;2022-12-10T00:41:41;100352.71;;;-0.62;87.90
76726;BME280;65651;53.154;17.916;2022-12-10T00:44:08;100354.68;;;-0.62;87.64
76726;BME280;65651;53.154;17.916;2022-12-10T00:46:35;100353.33;;;-0.60;87.67
76726;BME280;65651;53.154;17.916;2022-12-10T00:49:02;100349.52;;;-0.58;87.63
76726;BME280;65651;53.154;17.916;2022-12-10T00:51:30;100349.27;;;-0.57;87.57
76726;BME280;65651;53.154;17.916;2022-12-10T00:53:57;100347.54;;;-0.54;87.77
76726;BME280;65651;53.154;17.916;2022-12-10T00:56:27;100346.77;;;-0.52;87.75
76726;BME280;65651;53.154;17.916;2022-12-10T00:58:55;100344.84;;;-0.52;87.65
76726;BME280;65651;53.154;17.916;2022-12-10T01:01:30;100347.52;;;-0.53;87.73
76726;BME280;65651;53.154;17.916;2022-12-10T01:04:03;100349.21;;;-0.52;87.67
76726;BME280;65651;53.154;17.916;2022-12-10T01:06:34;100346.70;;;-0.54;87.78
76726;BME280;65651;53.154;17.916;2022-12-10T01:09:04;100346.70;;;-0.58;87.65
76726;BME280;65651;53.154;17.916;2022-12-10T01:11:34;100346.54;;;-0.61;87.70
76726;BME280;65651;53.154;17.916;2022-12-10T01:14:01;100348.34;;;-0.62;87.59
76726;BME280;65651;53.154;17.916;2022-12-10T01:16:27;100348.27;;;-0.61;87.50
76726;BME280;65651;53.154;17.916;2022-12-10T01:18:55;100349.59;;;-0.59;87.48
76726;BME280;65651;53.154;17.916;2022-12-10T01:21:23;100347.99;;;-0.63;87.32
76726;BME280;65651;53.154;17.916;2022-12-10T01:23:51;100346.71;;;-0.65;87.45
76726;BME280;65651;53.154;17.916;2022-12-10T01:26:22;100352.81;;;-0.67;87.37
76726;BME280;65651;53.154;17.916;2022-12-10T01:28:50;100353.27;;;-0.69;87.27
76726;BME280;65651;53.154;17.916;2022-12-10T01:31:21;100350.45;;;-0.69;87.12
76726;BME280;65651;53.154;17.916;2022-12-10T01:33:48;100349.55;;;-0.68;87.15
76726;BME280;65651;53.154;17.916;2022-12-10T01:36:24;100348.47;;;-0.68;87.08
76726;BME280;65651;53.154;17.916;2022-12-10T01:38:52;100351.31;;;-0.68;87.09
76726;BME280;65651;53.154;17.916;2022-12-10T01:41:25;100351.42;;;-0.71;86.92
76726;BME280;65651;53.154;17.916;2022-12-10T01:43:59;100350.66;;;-0.69;86.90
76726;BME280;65651;53.154;17.916;2022-12-10T01:46:30;100347.05;;;-0.67;86.92
76726;BME280;65651;53.154;17.916;2022-12-10T01:48:59;100346.89;;;-0.68;86.96
76726;BME280;65651;53.154;17.916;2022-12-10T01:51:28;100347.59;;;-0.71;86.82
76726;BME280;65651;53.154;17.916;2022-12-10T01:53:56;100345.85;;;-0.71;86.76
76726;BME280;65651;53.154;17.916;2022-12-10T01:56:24;100344.57;;;-0.71;86.84
76726;BME280;65651;53.154;17.916;2022-12-10T01:58:54;100339.20;;;-0.72;86.76
76726;BME280;65651;53.154;17.916;2022-12-10T02:01:26;100335.25;;;-0.74;86.71
76726;BME280;65651;53.154;17.916;2022-12-10T02:09:52;100330.33;;;-0.78;86.47
76726;BME280;65651;53.154;17.916;2022-12-10T02:12:46;100328.55;;;-0.78;86.50
76726;BME280;65651;53.154;17.916;2022-12-10T02:15:58;100330.56;;;-0.76;86.51
76726;BME280;65651;53.154;17.916;2022-12-10T02:18:20;100331.32;;;-0.76;86.46
76726;BME280;65651;53.154;17.916;2022-12-10T02:20:56;100327.41;;;-0.79;86.49
76726;BME280;65651;53.154;17.916;2022-12-10T02:23:27;100327.80;;;-0.77;86.33
76726;BME280;65651;53.154;17.916;2022-12-10T02:31:40;100325.31;;;-0.83;86.32
76726;BME280;65651;53.154;17.916;2022-12-10T02:34:10;100327.34;;;-0.85;86.26
76726;BME280;65651;53.154;17.916;2022-12-10T02:36:39;100332.33;;;-0.86;86.24
76726;BME280;65651;53.154;17.916;2022-12-10T02:39:11;100330.56;;;-0.86;86.32
76726;BME280;65651;53.154;17.916;2022-12-10T02:41:49;100330.08;;;-0.87;86.22
76726;BME280;65651;53.154;17.916;2022-12-10T02:44:19;100333.87;;;-0.89;86.27
76726;BME280;65651;53.154;17.916;2022-12-10T02:46:50;100335.70;;;-0.90;86.26
76726;BME280;65651;53.154;17.916;2022-12-10T02:49:20;100340.57;;;-0.89;86.39
76726;BME280;65651;53.154;17.916;2022-12-10T02:51:48;100336.53;;;-0.85;86.27
76726;BME280;65651;53.154;17.916;2022-12-10T02:54:44;100336.62;;;-0.84;86.31
76726;BME280;65651;53.154;17.916;2022-12-10T03:00:25;100337.02;;;-0.81;86.25
76726;BME280;65651;53.154;17.916;2022-12-10T03:08:50;100331.78;;;-0.85;85.97
76726;BME280;65651;53.154;17.916;2022-12-10T03:11:22;100331.97;;;-0.86;86.01
76726;BME280;65651;53.154;17.916;2022-12-10T03:16:48;100326.52;;;-0.83;86.19
76726;BME280;65651;53.154;17.916;2022-12-10T03:19:19;100331.12;;;-0.80;86.24
76726;BME280;65651;53.154;17.916;2022-12-10T03:21:48;100339.27;;;-0.77;86.20
76726;BME280;65651;53.154;17.916;2022-12-10T03:24:17;100340.44;;;-0.76;86.15
76726;BME280;65651;53.154;17.916;2022-12-10T03:26:47;100340.27;;;-0.76;86.26
76726;BME280;65651;53.154;17.916;2022-12-10T03:29:18;100342.56;;;-0.76;86.12
76726;BME280;65651;53.154;17.916;2022-12-10T03:31:49;100340.55;;;-0.78;86.11
76726;BME280;65651;53.154;17.916;2022-12-10T03:34:17;100348.20;;;-0.79;86.07
76726;BME280;65651;53.154;17.916;2022-12-10T03:36:44;100345.73;;;-0.79;86.04
76726;BME280;65651;53.154;17.916;2022-12-10T03:39:12;100346.95;;;-0.79;86.17
76726;BME280;65651;53.154;17.916;2022-12-10T03:41:39;100347.39;;;-0.77;86.14
76726;BME280;65651;53.154;17.916;2022-12-10T03:44:06;100347.05;;;-0.77;86.13
76726;BME280;65651;53.154;17.916;2022-12-10T03:46:33;100347.45;;;-0.78;86.11
76726;BME280;65651;53.154;17.916;2022-12-10T03:49:00;100349.27;;;-0.79;86.03
76726;BME280;65651;53.154;17.916;2022-12-10T03:51:28;100350.92;;;-0.77;86.11
76726;BME280;65651;53.154;17.916;2022-12-10T03:53:55;100351.78;;;-0.74;86.20
76726;BME280;65651;53.154;17.916;2022-12-10T03:56:22;100352.56;;;-0.75;86.29
76726;BME280;65651;53.154;17.916;2022-12-10T03:58:49;100354.66;;;-0.75;86.02
76726;BME280;65651;53.154;17.916;2022-12-10T04:01:16;100355.15;;;-0.74;86.28
76726;BME280;65651;53.154;17.916;2022-12-10T04:03:43;100356.89;;;-0.70;86.28
76726;BME280;65651;53.154;17.916;2022-12-10T04:06:15;100359.07;;;-0.68;86.30
76726;BME280;65651;53.154;17.916;2022-12-10T04:08:42;100364.11;;;-0.67;86.23
76726;BME280;65651;53.154;17.916;2022-12-10T04:11:10;100363.08;;;-0.70;86.36
76726;BME280;65651;53.154;17.916;2022-12-10T04:13:38;100366.64;;;-0.75;86.33
76726;BME280;65651;53.154;17.916;2022-12-10T04:16:24;100365.61;;;-0.78;86.19
76726;BME280;65651;53.154;17.916;2022-12-10T04:18:59;100364.41;;;-0.79;86.26
76726;BME280;65651;53.154;17.916;2022-12-10T04:21:27;100361.91;;;-0.79;86.14
76726;BME280;65651;53.154;17.916;2022-12-10T04:24:14;100364.88;;;-0.78;86.19
76726;BME280;65651;53.154;17.916;2022-12-10T04:27:03;100365.11;;;-0.79;86.16
76726;BME280;65651;53.154;17.916;2022-12-10T04:29:31;100368.45;;;-0.79;86.31
76726;BME280;65651;53.154;17.916;2022-12-10T04:31:57;100369.89;;;-0.79;86.19
76726;BME280;65651;53.154;17.916;2022-12-10T04:34:24;100368.48;;;-0.80;86.32
76726;BME280;65651;53.154;17.916;2022-12-10T04:36:51;100366.20;;;-0.80;86.33
76726;BME280;65651;53.154;17.916;2022-12-10T04:39:18;100365.48;;;-0.83;86.16
76726;BME280;65651;53.154;17.916;2022-12-10T04:41:46;100365.09;;;-0.86;86.10
76726;BME280;65651;53.154;17.916;2022-12-10T04:44:14;100361.98;;;-0.87;85.93
76726;BME280;65651;53.154;17.916;2022-12-10T04:46:41;100358.92;;;-0.86;86.07
76726;BME280;65651;53.154;17.916;2022-12-10T04:49:08;100360.45;;;-0.85;86.18
76726;BME280;65651;53.154;17.916;2022-12-10T04:51:35;100361.67;;;-0.84;86.20
76726;BME280;65651;53.154;17.916;2022-12-10T04:54:02;100360.95;;;-0.84;85.97
76726;BME280;65651;53.154;17.916;2022-12-10T04:56:29;100361.13;;;-0.84;86.17
76726;BME280;65651;53.154;17.916;2022-12-10T04:58:57;100357.48;;;-0.85;86.19
76726;BME280;65651;53.154;17.916;2022-12-10T05:01:24;100355.06;;;-0.86;86.27
76726;BME280;65651;53.154;17.916;2022-12-10T05:03:51;100354.05;;;-0.87;86.04
76726;BME280;65651;53.154;17.916;2022-12-10T05:06:18;100354.83;;;-0.88;86.25
76726;BME280;65651;53.154;17.916;2022-12-10T05:08:46;100355.20;;;-0.89;86.14
76726;BME280;65651;53.154;17.916;2022-12-10T05:11:15;100359.70;;;-0.90;86.05
76726;BME280;65651;53.154;17.916;2022-12-10T05:13:42;100363.07;;;-0.91;86.10
76726;BME280;65651;53.154;17.916;2022-12-10T05:16:11;100358.25;;;-0.86;86.04
76726;BME280;65651;53.154;17.916;2022-12-10T05:18:39;100361.11;;;-0.84;86.09
76726;BME280;65651;53.154;17.916;2022-12-10T05:21:09;100358.86;;;-0.81;86.11
76726;BME280;65651;53.154;17.916;2022-12-10T05:23:37;100360.18;;;-0.79;86.18
76726;BME280;65651;53.154;17.916;2022-12-10T05:26:07;100361.70;;;-0.82;86.20
76726;BME280;65651;53.154;17.916;2022-12-10T05:28:40;100366.52;;;-0.83;86.18
76726;BME280;65651;53.154;17.916;2022-12-10T05:31:19;100365.80;;;-0.83;86.11
76726;BME280;65651;53.154;17.916;2022-12-10T05:33:47;100370.58;;;-0.79;86.16
76726;BME280;65651;53.154;17.916;2022-12-10T05:36:16;100368.91;;;-0.78;86.27
76726;BME280;65651;53.154;17.916;2022-12-10T05:38:43;100372.21;;;-0.77;86.25
76726;BME280;65651;53.154;17.916;2022-12-10T05:41:18;100375.16;;;-0.79;86.17
76726;BME280;65651;53.154;17.916;2022-12-10T05:43:48;100376.04;;;-0.79;86.10
76726;BME280;65651;53.154;17.916;2022-12-10T05:46:19;100375.50;;;-0.79;85.97
76726;BME280;65651;53.154;17.916;2022-12-10T05:48:46;100378.02;;;-0.80;85.91
76726;BME280;65651;53.154;17.916;2022-12-10T05:51:18;100374.80;;;-0.83;86.15
76726;BME280;65651;53.154;17.916;2022-12-10T05:53:45;100376.11;;;-0.84;86.07
76726;BME280;65651;53.154;17.916;2022-12-10T05:56:17;100373.98;;;-0.87;86.08
76726;BME280;65651;53.154;17.916;2022-12-10T05:58:47;100378.41;;;-0.88;86.14
76726;BME280;65651;53.154;17.916;2022-12-10T06:01:22;100378.64;;;-0.86;85.93
76726;BME280;65651;53.154;17.916;2022-12-10T06:03:49;100378.54;;;-0.80;86.09
76726;BME280;65651;53.154;17.916;2022-12-10T06:06:23;100380.98;;;-0.76;86.15
76726;BME280;65651;53.154;17.916;2022-12-10T06:08:50;100381.56;;;-0.74;86.05
76726;BME280;65651;53.154;17.916;2022-12-10T06:11:17;100384.20;;;-0.73;86.04
76726;BME280;65651;53.154;17.916;2022-12-10T06:13:44;100385.92;;;-0.76;85.92
76726;BME280;65651;53.154;17.916;2022-12-10T06:16:13;100386.84;;;-0.77;86.01
76726;BME280;65651;53.154;17.916;2022-12-10T06:18:41;100385.39;;;-0.76;86.05
76726;BME280;65651;53.154;17.916;2022-12-10T06:21:10;100387.66;;;-0.79;86.07
76726;BME280;65651;53.154;17.916;2022-12-10T06:23:38;100389.51;;;-0.81;86.04
76726;BME280;65651;53.154;17.916;2022-12-10T06:26:13;100390.43;;;-0.82;86.01
76726;BME280;65651;53.154;17.916;2022-12-10T06:28:41;100392.84;;;-0.80;85.86
76726;BME280;65651;53.154;17.916;2022-12-10T06:31:10;100395.61;;;-0.79;85.97
76726;BME280;65651;53.154;17.916;2022-12-10T06:33:36;100401.34;;;-0.78;85.82
76726;BME280;65651;53.154;17.916;2022-12-10T06:36:04;100398.23;;;-0.76;85.96
76726;BME280;65651;53.154;17.916;2022-12-10T06:38:32;100403.73;;;-0.76;85.78
76726;BME280;65651;53.154;17.916;2022-12-10T06:40:58;100407.21;;;-0.76;85.80
76726;BME280;65651;53.154;17.916;2022-12-10T06:43:30;100401.22;;;-0.79;85.75
76726;BME280;65651;53.154;17.916;2022-12-10T06:45:57;100401.92;;;-0.79;85.82
76726;BME280;65651;53.154;17.916;2022-12-10T06:48:23;100406.59;;;-0.77;85.80
76726;BME280;65651;53.154;17.916;2022-12-10T06:50:50;100408.23;;;-0.75;85.67
76726;BME280;65651;53.154;17.916;2022-12-10T06:53:16;100408.77;;;-0.75;85.72
76726;BME280;65651;53.154;17.916;2022-12-10T06:55:45;100410.16;;;-0.75;85.92
76726;BME280;65651;53.154;17.916;2022-12-10T06:58:12;100413.41;;;-0.73;85.66
76726;BME280;65651;53.154;17.916;2022-12-10T07:00:39;100419.82;;;-0.71;85.81
76726;BME280;65651;53.154;17.916;2022-12-10T07:03:05;100422.84;;;-0.71;85.98
76726;BME280;65651;53.154;17.916;2022-12-10T07:05:31;100419.33;;;-0.71;85.89
76726;BME280;65651;53.154;17.916;2022-12-10T07:07:58;100420.52;;;-0.74;85.89
76726;BME280;65651;53.154;17.916;2022-12-10T07:10:26;100419.52;;;-0.75;85.68
76726;BME280;65651;53.154;17.916;2022-12-10T07:12:52;100421.98;;;-0.75;85.68
76726;BME280;65651;53.154;17.916;2022-12-10T07:15:19;100423.55;;;-0.71;85.74
76726;BME280;65651;53.154;17.916;2022-12-10T07:17:45;100419.87;;;-0.68;85.75
76726;BME280;65651;53.154;17.916;2022-12-10T07:20:14;100423.92;;;-0.68;86.00
76726;BME280;65651;53.154;17.916;2022-12-10T07:22:41;100429.92;;;-0.65;85.81
76726;BME280;65651;53.154;17.916;2022-12-10T07:25:07;100430.66;;;-0.62;85.89
76726;BME280;65651;53.154;17.916;2022-12-10T07:27:34;100428.03;;;-0.59;85.79
76726;BME280;65651;53.154;17.916;2022-12-10T07:30:01;100427.04;;;-0.60;85.85
76726;BME280;65651;53.154;17.916;2022-12-10T07:32:28;100427.80;;;-0.65;85.89
76726;BME280;65651;53.154;17.916;2022-12-10T07:34:57;100427.50;;;-0.66;85.73
76726;BME280;65651;53.154;17.916;2022-12-10T07:37:24;100427.45;;;-0.65;85.81
76726;BME280;65651;53.154;17.916;2022-12-10T07:39:50;100428.73;;;-0.63;85.64
76726;BME280;65651;53.154;17.916;2022-12-10T07:42:17;100427.70;;;-0.60;85.81
76726;BME280;65651;53.154;17.916;2022-12-10T07:44:43;100430.80;;;-0.58;85.85
76726;BME280;65651;53.154;17.916;2022-12-10T07:47:10;100429.83;;;-0.60;85.73
76726;BME280;65651;53.154;17.916;2022-12-10T07:49:37;100429.89;;;-0.61;85.69
76726;BME280;65651;53.154;17.916;2022-12-10T07:52:04;100427.75;;;-0.60;85.63
76726;BME280;65651;53.154;17.916;2022-12-10T07:54:30;100424.92;;;-0.57;85.68
76726;BME280;65651;53.154;17.916;2022-12-10T07:56:57;100424.36;;;-0.57;85.58
76726;BME280;65651;53.154;17.916;2022-12-10T07:59:23;100421.50;;;-0.59;85.64
76726;BME280;65651;53.154;17.916;2022-12-10T08:01:50;100420.86;;;-0.60;85.50
76726;BME280;65651;53.154;17.916;2022-12-10T08:04:17;100422.33;;;-0.61;85.69
76726;BME280;65651;53.154;17.916;2022-12-10T08:06:44;100422.36;;;-0.62;85.68
76726;BME280;65651;53.154;17.916;2022-12-10T08:09:10;100418.73;;;-0.60;85.62
76726;BME280;65651;53.154;17.916;2022-12-10T08:11:37;100421.89;;;-0.57;85.61
76726;BME280;65651;53.154;17.916;2022-12-10T08:14:04;100421.44;;;-0.54;85.58
76726;BME280;65651;53.154;17.916;2022-12-10T08:16:31;100425.84;;;-0.54;85.59
76726;BME280;65651;53.154;17.916;2022-12-10T08:18:59;100433.47;;;-0.55;85.45
76726;BME280;65651;53.154;17.916;2022-12-10T08:21:28;100438.60;;;-0.56;85.47
76726;BME280;65651;53.154;17.916;2022-12-10T08:23:58;100438.95;;;-0.59;85.31
76726;BME280;65651;53.154;17.916;2022-12-10T08:26:29;100440.94;;;-0.57;85.46
76726;BME280;65651;53.154;17.916;2022-12-10T08:28:57;100443.13;;;-0.54;85.35
76726;BME280;65651;53.154;17.916;2022-12-10T08:31:25;100445.82;;;-0.52;85.22
76726;BME280;65651;53.154;17.916;2022-12-10T08:33:53;100448.13;;;-0.49;85.44
76726;BME280;65651;53.154;17.916;2022-12-10T08:36:22;100446.70;;;-0.45;85.41
76726;BME280;65651;53.154;17.916;2022-12-10T08:38:55;100452.48;;;-0.41;85.52
76726;BME280;65651;53.154;17.916;2022-12-10T08:41:22;100449.49;;;-0.41;85.37
76726;BME280;65651;53.154;17.916;2022-12-10T08:43:51;100449.88;;;-0.42;85.33
76726;BME280;65651;53.154;17.916;2022-12-10T08:46:20;100451.77;;;-0.41;85.50
76726;BME280;65651;53.154;17.916;2022-12-10T08:48:46;100450.39;;;-0.35;85.56
76726;BME280;65651;53.154;17.916;2022-12-10T08:51:15;100448.02;;;-0.30;85.53
76726;BME280;65651;53.154;17.916;2022-12-10T08:53:42;100447.56;;;-0.25;85.35
76726;BME280;65651;53.154;17.916;2022-12-10T08:56:09;100443.21;;;-0.22;85.48
76726;BME280;65651;53.154;17.916;2022-12-10T08:58:36;100447.84;;;-0.23;85.25
76726;BME280;65651;53.154;17.916;2022-12-10T09:01:12;100448.36;;;-0.27;85.16
76726;BME280;65651;53.154;17.916;2022-12-10T09:03:40;100449.64;;;-0.28;85.24
76726;BME280;65651;53.154;17.916;2022-12-10T09:06:10;100449.82;;;-0.28;85.16
76726;BME280;65651;53.154;17.916;2022-12-10T09:08:38;100453.84;;;-0.27;85.11
76726;BME280;65651;53.154;17.916;2022-12-10T09:11:12;100457.48;;;-0.29;85.13
76726;BME280;65651;53.154;17.916;2022-12-10T09:13:41;100458.92;;;-0.30;85.14
76726;BME280;65651;53.154;17.916;2022-12-10T09:16:09;100462.35;;;-0.24;85.18
76726;BME280;65651;53.154;17.916;2022-12-10T09:18:36;100465.11;;;-0.20;85.14
76726;BME280;65651;53.154;17.916;2022-12-10T09:21:10;100467.48;;;-0.15;85.08
76726;BME280;65651;53.154;17.916;2022-12-10T09:23:39;100463.27;;;-0.12;85.27
76726;BME280;65651;53.154;17.916;2022-12-10T09:26:10;100460.05;;;-0.08;85.20
76726;BME280;65651;53.154;17.916;2022-12-10T09:28:39;100457.61;;;-0.05;85.18
76726;BME280;65651;53.154;17.916;2022-12-10T09:31:06;100455.48;;;-0.05;85.10
76726;BME280;65651;53.154;17.916;2022-12-10T09:33:35;100448.75;;;-0.04;85.11
76726;BME280;65651;53.154;17.916;2022-12-10T09:36:07;100451.77;;;-0.02;85.06
76726;BME280;65651;53.154;17.916;2022-12-10T09:38:35;100455.13;;;0.02;85.07
76726;BME280;65651;53.154;17.916;2022-12-10T09:41:03;100449.39;;;0.07;85.02
76726;BME280;65651;53.154;17.916;2022-12-10T09:43:56;100446.73;;;0.10;85.08
76726;BME280;65651;53.154;17.916;2022-12-10T09:46:52;100447.27;;;0.13;84.96
76726;BME280;65651;53.154;17.916;2022-12-10T09:52:19;100449.15;;;0.18;84.89
76726;BME280;65651;53.154;17.916;2022-12-10T09:54:57;100447.58;;;0.20;84.71
76726;BME280;65651;53.154;17.916;2022-12-10T09:57:34;100446.72;;;0.20;84.58
76726;BME280;65651;53.154;17.916;2022-12-10T10:00:21;100448.55;;;0.22;84.53
76726;BME280;65651;53.154;17.916;2022-12-10T10:02:50;100443.44;;;0.25;84.53
76726;BME280;65651;53.154;17.916;2022-12-10T10:05:31;100440.67;;;0.24;84.41
76726;BME280;65651;53.154;17.916;2022-12-10T10:08:05;100435.39;;;0.24;84.30
76726;BME280;65651;53.154;17.916;2022-12-10T10:10:38;100437.46;;;0.21;84.30
76726;BME280;65651;53.154;17.916;2022-12-10T10:15:37;100430.09;;;0.20;84.14
76726;BME280;65651;53.154;17.916;2022-12-10T10:18:45;100428.96;;;0.19;84.06
76726;BME280;65651;53.154;17.916;2022-12-10T10:21:39;100430.07;;;0.15;83.95
76726;BME280;65651;53.154;17.916;2022-12-10T10:24:09;100432.76;;;0.11;83.58
76726;BME280;65651;53.154;17.916;2022-12-10T10:26:38;100434.55;;;0.10;83.50
76726;BME280;65651;53.154;17.916;2022-12-10T10:29:09;100431.38;;;0.13;83.42
76726;BME280;65651;53.154;17.916;2022-12-10T10:31:40;100434.42;;;0.16;83.50
76726;BME280;65651;53.154;17.916;2022-12-10T10:34:22;100434.39;;;0.16;83.46
76726;BME280;65651;53.154;17.916;2022-12-10T10:36:56;100435.05;;;0.11;83.19
76726;BME280;65651;53.154;17.916;2022-12-10T10:39:28;100435.39;;;0.08;83.18
76726;BME280;65651;53.154;17.916;2022-12-10T10:41:57;100433.33;;;0.10;83.14
76726;BME280;65651;53.154;17.916;2022-12-10T10:44:27;100427.73;;;0.15;83.27
76726;BME280;65651;53.154;17.916;2022-12-10T10:46:55;100424.75;;;0.18;83.25
76726;BME280;65651;53.154;17.916;2022-12-10T10:49:26;100427.05;;;0.18;83.28
76726;BME280;65651;53.154;17.916;2022-12-10T10:52:06;100427.52;;;0.19;83.23
76726;BME280;65651;53.154;17.916;2022-12-10T10:54:40;100424.73;;;0.19;83.16
76726;BME280;65651;53.154;17.916;2022-12-10T10:59:45;100415.54;;;0.25;83.18
76726;BME280;65651;53.154;17.916;2022-12-10T11:02:35;100416.04;;;0.26;82.98
76726;BME280;65651;53.154;17.916;2022-12-10T11:05:08;100417.45;;;0.26;82.85
76726;BME280;65651;53.154;17.916;2022-12-10T11:07:41;100418.65;;;0.26;82.89
76726;BME280;65651;53.154;17.916;2022-12-10T11:12:53;100411.71;;;0.21;82.72
76726;BME280;65651;53.154;17.916;2022-12-10T11:17:54;100408.49;;;0.22;82.69
76726;BME280;65651;53.154;17.916;2022-12-10T11:20:30;100405.91;;;0.21;82.64
76726;BME280;65651;53.154;17.916;2022-12-10T11:23:01;100403.66;;;0.17;82.49
76726;BME280;65651;53.154;17.916;2022-12-10T11:28:28;100393.30;;;0.12;82.27
76726;BME280;65651;53.154;17.916;2022-12-10T11:31:32;100392.14;;;0.14;82.42
76726;BME280;65651;53.154;17.916;2022-12-10T11:42:28;100385.55;;;0.24;82.33
76726;BME280;65651;53.154;17.916;2022-12-10T11:45:26;100385.21;;;0.28;82.35
76726;BME280;65651;53.154;17.916;2022-12-10T11:50:53;100383.30;;;0.21;81.89
76726;BME280;65651;53.154;17.916;2022-12-10T11:53:50;100382.92;;;0.15;81.76
76726;BME280;65651;53.154;17.916;2022-12-10T11:56:36;100382.82;;;0.10;81.69
76726;BME280;65651;53.154;17.916;2022-12-10T12:05:27;100383.42;;;0.03;81.71
76726;BME280;65651;53.154;17.916;2022-12-10T12:13:10;100382.71;;;0.00;81.46
76726;BME280;65651;53.154;17.916;2022-12-10T12:15:51;100377.89;;;-0.02;81.30
76726;BME280;65651;53.154;17.916;2022-12-10T12:21:14;100385.76;;;-0.11;81.15
76726;BME280;65651;53.154;17.916;2022-12-10T12:23:46;100389.30;;;-0.11;81.07
76726;BME280;65651;53.154;17.916;2022-12-10T12:31:47;100388.58;;;-0.08;81.05
76726;BME280;65651;53.154;17.916;2022-12-10T12:34:21;100393.41;;;-0.09;80.90
76726;BME280;65651;53.154;17.916;2022-12-10T12:36:51;100391.28;;;-0.11;80.95
76726;BME280;65651;53.154;17.916;2022-12-10T12:39:56;100395.05;;;-0.10;80.95
76726;BME280;65651;53.154;17.916;2022-12-10T12:42:38;100393.18;;;-0.08;81.00
76726;BME280;65651;53.154;17.916;2022-12-10T12:45:28;100393.30;;;-0.07;81.13
76726;BME280;65651;53.154;17.916;2022-12-10T12:48:22;100392.55;;;-0.09;81.03
76726;BME280;65651;53.154;17.916;2022-12-10T12:50:55;100392.44;;;-0.10;81.02
76726;BME280;65651;53.154;17.916;2022-12-10T12:53:25;100396.95;;;-0.09;81.06
76726;BME280;65651;53.154;17.916;2022-12-10T13:04:07;100398.60;;;-0.13;81.12
76726;BME280;65651;53.154;17.916;2022-12-10T13:06:36;100399.80;;;-0.12;81.05
76726;BME280;65651;53.154;17.916;2022-12-10T13:11:43;100403.77;;;-0.17;81.05
76726;BME280;65651;53.154;17.916;2022-12-10T13:14:16;100403.95;;;-0.17;81.09
76726;BME280;65651;53.154;17.916;2022-12-10T13:23:04;100414.80;;;-0.19;80.89
76726;BME280;65651;53.154;17.916;2022-12-10T13:31:37;100408.77;;;-0.25;80.93
76726;BME280;65651;53.154;17.916;2022-12-10T13:36:33;100412.58;;;-0.27;81.04
76726;BME280;65651;53.154;17.916;2022-12-10T13:41:34;100414.52;;;-0.30;81.13
76726;BME280;65651;53.154;17.916;2022-12-10T13:44:33;100422.26;;;-0.30;81.11
76726;BME280;65651;53.154;17.916;2022-12-10T13:47:21;100419.65;;;-0.31;81.26
76726;BME280;65651;53.154;17.916;2022-12-10T13:50:12;100425.73;;;-0.29;81.35
76726;BME280;65651;53.154;17.916;2022-12-10T13:53:19;100432.14;;;-0.27;81.33
76726;BME280;65651;53.154;17.916;2022-12-10T13:56:11;100431.89;;;-0.25;81.31
76726;BME280;65651;53.154;17.916;2022-12-10T14:07:11;100434.30;;;-0.35;81.32
76726;BME280;65651;53.154;17.916;2022-12-10T14:09:50;100432.78;;;-0.36;81.57
76726;BME280;65651;53.154;17.916;2022-12-10T14:12:31;100432.09;;;-0.40;81.50
76726;BME280;65651;53.154;17.916;2022-12-10T14:15:04;100434.50;;;-0.41;81.43
76726;BME280;65651;53.154;17.916;2022-12-10T14:17:38;100438.02;;;-0.41;81.37
76726;BME280;65651;53.154;17.916;2022-12-10T14:20:14;100440.58;;;-0.43;81.42
76726;BME280;65651;53.154;17.916;2022-12-10T14:22:48;100445.58;;;-0.40;81.38
76726;BME280;65651;53.154;17.916;2022-12-10T14:25:18;100446.48;;;-0.41;81.41
76726;BME280;65651;53.154;17.916;2022-12-10T14:27:50;100449.25;;;-0.40;81.44
76726;BME280;65651;53.154;17.916;2022-12-10T14:30:22;100447.98;;;-0.40;81.35
76726;BME280;65651;53.154;17.916;2022-12-10T14:32:51;100451.91;;;-0.40;81.44
76726;BME280;65651;53.154;17.916;2022-12-10T14:35:30;100450.13;;;-0.43;81.44
76726;BME280;65651;53.154;17.916;2022-12-10T14:37:58;100447.77;;;-0.45;81.34
76726;BME280;65651;53.154;17.916;2022-12-10T14:40:29;100444.17;;;-0.44;81.39
76726;BME280;65651;53.154;17.916;2022-12-10T14:43:06;100442.95;;;-0.48;81.40
76726;BME280;65651;53.154;17.916;2022-12-10T14:48:14;100443.19;;;-0.49;81.36
76726;BME280;65651;53.154;17.916;2022-12-10T14:50:43;100441.73;;;-0.51;81.39
76726;BME280;65651;53.154;17.916;2022-12-10T14:53:16;100441.85;;;-0.51;81.48